Time;durP1;ratioP1;P1;durP2;ratioP2;P2;SDS_P1;SDS_P2;PMS_P1;PMS_P2;Temp;Humidity;BMP_temperature;BMP_pressure;BME280_temperature;BME280_humidity;BME280_pressure;Samples;Min_cycle;Max_cycle;Signal;HPM_P1;HPM_P2
2021/12/16 06:39:02;;;;;;;73.20;37.20;;;;;;;0.10;100.00;101793.22;6659452;26;109150;-90
2021/12/16 06:45:34;;;;;;;69.85;36.55;;;;;;;0.20;100.00;101795.97;6608313;27;33773;-88
2021/12/16 06:48:40;;;;;;;71.70;36.85;;;;;;;0.27;100.00;101800.44;6608950;26;34160;-88
2021/12/16 06:52:00;;;;;;;70.97;37.13;;;;;;;0.30;100.00;101803.09;6608723;27;34162;-89
2021/12/16 06:55:11;;;;;;;72.87;36.50;;;;;;;0.34;100.00;101806.63;6608932;27;34273;-89
2021/12/16 07:01:38;;;;;;;70.43;37.63;;;;;;;0.51;100.00;101804.28;6607655;27;34250;-88
2021/12/16 07:04:43;;;;;;;67.75;36.45;;;;;;;0.58;100.00;101811.34;6608418;27;33913;-88
2021/12/16 07:07:47;;;;;;;71.03;37.10;;;;;;;0.96;100.00;101807.53;6609705;27;34627;-88
2021/12/16 07:10:56;;;;;;;76.82;39.30;;;;;;;0.84;100.00;101813.47;6609960;27;34040;-88
2021/12/16 07:14:01;;;;;;;82.53;38.20;;;;;;;0.73;100.00;101815.94;6614032;27;33846;-88
2021/12/16 07:17:13;;;;;;;75.10;37.50;;;;;;;0.79;100.00;101809.91;6614435;27;33956;-88
2021/12/16 07:20:20;;;;;;;80.47;39.40;;;;;;;0.79;100.00;101809.91;6621179;27;34146;-88
2021/12/16 07:23:23;;;;;;;80.47;38.53;;;;;;;0.91;100.00;101804.00;6613256;27;33791;-89
2021/12/16 07:26:26;;;;;;;83.68;39.08;;;;;;;0.80;100.00;101806.44;6608708;27;34088;-88
2021/12/16 07:29:29;;;;;;;92.93;42.33;;;;;;;0.82;100.00;101809.97;6608356;27;34043;-88
2021/12/16 07:32:35;;;;;;;93.68;43.10;;;;;;;0.77;100.00;101817.75;6608792;27;34700;-92
2021/12/16 07:35:40;;;;;;;91.25;43.38;;;;;;;0.85;100.00;101801.28;6607612;27;34343;-91
2021/12/16 07:38:43;;;;;;;91.47;44.78;;;;;;;0.90;100.00;101804.84;6608865;27;34764;-89
2021/12/16 07:41:48;;;;;;;93.12;44.08;;;;;;;0.74;100.00;101804.62;6612198;27;33567;-88
2021/12/16 07:44:53;;;;;;;87.97;42.00;;;;;;;0.80;100.00;101807.31;6617647;27;34299;-88
2021/12/16 07:47:55;;;;;;;86.25;42.47;;;;;;;0.75;100.00;101806.37;6618445;27;34022;-87
2021/12/16 07:51:01;;;;;;;82.95;41.13;;;;;;;0.92;100.00;101803.13;6616884;27;34773;-88
2021/12/16 07:54:05;;;;;;;82.18;42.45;;;;;;;0.91;100.00;101799.63;6620190;27;33989;-89
2021/12/16 08:00:47;;;;;;;82.62;38.72;;;;;;;1.07;100.00;101797.22;6675849;26;20035;-90
2021/12/16 08:30:44;;;;;;;78.07;36.33;;;;;;;1.45;100.00;101807.25;6666259;26;20402;-88
2021/12/16 08:33:47;;;;;;;71.87;34.08;;;;;;;1.49;100.00;101810.78;6665532;26;33884;-87
2021/12/16 08:36:51;;;;;;;73.68;35.13;;;;;;;1.58;100.00;101804.78;6665770;26;33803;-87
2021/12/16 08:39:54;;;;;;;73.53;35.15;;;;;;;1.62;100.00;101802.19;6665200;26;34045;-88
2021/12/16 08:42:57;;;;;;;70.75;33.80;;;;;;;1.70;100.00;101801.41;6668748;26;34542;-88
2021/12/16 08:46:01;;;;;;;72.05;32.28;;;;;;;1.75;100.00;101810.19;6664306;26;34099;-87
2021/12/16 08:49:05;;;;;;;67.90;33.45;;;;;;;1.88;100.00;101804.19;6663448;26;34273;-87
2021/12/16 08:52:15;;;;;;;70.93;33.30;;;;;;;1.95;100.00;101799.91;6666947;26;34903;-87
2021/12/16 08:55:21;;;;;;;72.80;32.55;;;;;;;2.06;100.00;101801.75;6666391;26;34150;-88
2021/12/16 08:58:25;;;;;;;60.45;30.23;;;;;;;2.51;100.00;101796.88;6665902;26;34123;-88
2021/12/16 09:01:32;;;;;;;65.03;31.10;;;;;;;3.10;100.00;101799.78;6667028;26;33767;-88
2021/12/16 09:04:37;;;;;;;62.20;30.35;;;;;;;3.35;100.00;101794.62;6668056;26;34563;-87
2021/12/16 09:07:40;;;;;;;61.35;30.50;;;;;;;3.76;100.00;101782.47;6663547;26;33840;-88
2021/12/16 09:10:43;;;;;;;63.80;31.15;;;;;;;3.93;100.00;101790.41;6670772;26;34719;-89
2021/12/16 09:13:48;;;;;;;63.70;31.30;;;;;;;3.96;100.00;101782.50;6668489;26;34058;-89
2021/12/16 09:16:51;;;;;;;60.45;31.73;;;;;;;4.02;100.00;101774.62;6668288;26;34017;-89
2021/12/16 09:19:55;;;;;;;61.85;30.45;;;;;;;4.22;100.00;101778.12;6677138;26;34825;-89
2021/12/16 09:22:59;;;;;;;62.92;31.30;;;;;;;4.29;99.00;101780.72;6678971;26;33889;-89
2021/12/16 09:26:03;;;;;;;61.13;30.55;;;;;;;4.54;98.40;101778.06;6669284;26;34128;-89
2021/12/16 09:29:20;;;;;;;56.55;29.15;;;;;;;4.34;98.04;101780.75;6666124;26;33893;-89
2021/12/16 09:32:27;;;;;;;54.95;29.90;;;;;;;4.08;100.00;101770.25;6666240;26;33886;-88
2021/12/16 09:35:33;;;;;;;53.72;28.65;;;;;;;5.42;94.75;101780.41;6666678;26;34042;-88
2021/12/16 09:38:35;;;;;;;55.95;30.05;;;;;;;7.31;80.85;101780.41;6670971;26;34192;-88
2021/12/16 09:41:42;;;;;;;55.42;30.77;;;;;;;8.88;73.07;101775.19;6670438;26;33748;-88
2021/12/16 09:44:45;;;;;;;62.05;32.03;;;;;;;10.60;66.31;101782.69;6672355;26;33597;-89
2021/12/16 09:47:49;;;;;;;52.88;30.45;;;;;;;11.48;59.58;101759.81;6674227;26;33781;-89
2021/12/16 09:50:52;;;;;;;54.58;31.75;;;;;;;13.74;51.92;101759.81;6672200;26;34394;-89
2021/12/16 09:54:01;;;;;;;54.53;29.73;;;;;;;14.31;51.23;101774.34;6671564;26;34230;-89
2021/12/16 10:04:31;;;;;;;52.58;31.25;;;;;;;13.42;52.97;101765.47;6666029;26;34466;-88
2021/12/16 10:07:35;;;;;;;53.05;29.95;;;;;;;12.09;55.84;101753.44;6667335;26;33663;-89
2021/12/16 10:10:38;;;;;;;54.63;30.73;;;;;;;11.10;58.48;101760.06;6669553;26;34318;-88
2021/12/16 10:17:24;;;;;;;54.17;32.17;;;;;;;8.33;69.63;101758.56;6667884;26;34784;-90
2021/12/16 10:20:33;;;;;;;57.90;31.90;;;;;;;7.35;74.38;101754.84;6668120;26;34741;-89
2021/12/16 10:23:52;;;;;;;58.05;33.60;;;;;;;6.56;79.08;101754.94;6666417;26;33908;-89
2021/12/16 10:27:30;;;;;;;54.85;31.73;;;;;;;7.29;77.39;101747.88;6669274;26;33832;-90
2021/12/16 10:30:38;;;;;;;58.28;32.10;;;;;;;7.40;75.65;101740.69;6609937;26;34134;-89
2021/12/16 10:34:02;;;;;;;55.03;31.20;;;;;;;7.69;75.18;101743.75;6664724;26;33963;-89
2021/12/16 10:37:04;;;;;;;53.30;29.65;;;;;;;7.76;73.74;101739.28;6663621;26;34578;-90
2021/12/16 10:40:26;;;;;;;51.63;30.77;;;;;;;7.84;74.23;101731.22;6663378;26;34487;-89
2021/12/16 10:43:40;;;;;;;51.55;30.33;;;;;;;7.44;76.93;101735.37;6663926;26;34996;-88
2021/12/16 10:46:45;;;;;;;51.83;29.52;;;;;;;6.85;79.41;101732.59;6666061;26;34579;-88
2021/12/16 10:49:54;;;;;;;56.47;30.30;;;;;;;5.96;84.22;101727.34;6667895;26;34449;-91
2021/12/16 10:52:57;;;;;;;54.47;29.98;;;;;;;6.10;84.37;101731.66;6667314;26;35240;-91
2021/12/16 10:56:01;;;;;;;52.08;28.58;;;;;;;6.15;84.27;101730.75;6668933;26;34316;-92
2021/12/16 10:59:09;;;;;;;52.47;29.90;;;;;;;6.13;84.12;101732.50;6671429;26;34809;-89
2021/12/16 11:02:21;;;;;;;52.35;28.25;;;;;;;5.62;87.13;101738.13;6669062;26;34939;-92
2021/12/16 11:55:26;;;;;;;48.05;24.27;;;;;;;5.35;95.81;101684.81;6658613;26;20783;-89
2021/12/16 11:58:30;;;;;;;43.08;22.33;;;;;;;5.64;94.12;101686.38;6662293;26;34647;-89
2021/12/16 12:01:38;;;;;;;43.72;23.67;;;;;;;6.72;91.76;101681.78;6663899;26;34269;-90
2021/12/16 14:10:36;;;;;;;43.65;23.80;;;;;;;4.97;99.78;101707.81;6669040;26;34066;-89
2021/12/16 14:17:27;;;;;;;39.35;22.60;;;;;;;5.15;98.76;101704.25;6639061;26;34608;-88
2021/12/16 14:27:20;;;;;;;40.83;23.48;;;;;;;5.15;98.90;101704.25;6664119;26;34778;-88
2021/12/16 14:41:24;;;;;;;40.95;22.33;;;;;;;4.73;100.00;101696.56;6668760;26;20059;-89
2021/12/16 14:50:56;;;;;;;44.37;24.00;;;;;;;4.72;100.00;101703.56;6666968;26;33823;-90
2021/12/16 14:54:14;;;;;;;38.42;22.27;;;;;;;4.69;100.00;101702.69;6661629;26;35097;-89
2021/12/16 14:57:26;;;;;;;37.10;20.25;;;;;;;4.67;100.00;101704.47;6673892;26;35028;-88
2021/12/16 15:00:37;;;;;;;38.25;20.88;;;;;;;4.65;100.00;101708.84;6662910;26;33608;-87
2021/12/16 15:03:42;;;;;;;37.78;21.08;;;;;;;4.63;100.00;101703.59;6664578;26;34173;-89
2021/12/16 15:06:52;;;;;;;38.63;20.12;;;;;;;4.69;100.00;101700.06;6666452;26;33968;-90
2021/12/16 15:09:56;;;;;;;37.17;20.65;;;;;;;4.66;100.00;101700.06;6670226;26;34218;-90
2021/12/16 15:45:28;;;;;;;33.45;19.23;;;;;;;4.39;100.00;101694.94;6636138;26;20086;-91
